sensor_id;sensor_type;location;lat;lon;timestamp;temperature;humidity
27890;DHT22;15238;49.082;9.102;2023-02-02T00:00:22;6.10;99.90
27890;DHT22;15238;49.082;9.102;2023-02-02T00:02:23;6.10;99.90
27890;DHT22;15238;49.082;9.102;2023-02-02T00:04:26;6.10;99.90
27890;DHT22;15238;49.082;9.102;2023-02-02T00:06:28;6.10;99.90
27890;DHT22;15238;49.082;9.102;2023-02-02T00:08:29;6.10;99.90
27890;DHT22;15238;49.082;9.102;2023-02-02T00:10:30;6.10;99.90
27890;DHT22;15238;49.082;9.102;2023-02-02T00:12:30;6.10;99.90
27890;DHT22;15238;49.082;9.102;2023-02-02T00:14:31;6.10;99.90
27890;DHT22;15238;49.082;9.102;2023-02-02T00:16:33;6.10;99.90
27890;DHT22;15238;49.082;9.102;2023-02-02T00:18:34;6.20;99.90
27890;DHT22;15238;49.082;9.102;2023-02-02T00:20:35;6.10;99.90
27890;DHT22;15238;49.082;9.102;2023-02-02T00:22:35;6.10;99.90
27890;DHT22;15238;49.082;9.102;2023-02-02T00:24:36;6.20;99.90
27890;DHT22;15238;49.082;9.102;2023-02-02T00:26:38;6.10;99.90
27890;DHT22;15238;49.082;9.102;2023-02-02T00:28:39;6.10;99.90
27890;DHT22;15238;49.082;9.102;2023-02-02T00:30:39;6.10;99.90
27890;DHT22;15238;49.082;9.102;2023-02-02T00:32:40;6.10;99.90
27890;DHT22;15238;49.082;9.102;2023-02-02T00:34:41;6.10;99.90
27890;DHT22;15238;49.082;9.102;2023-02-02T00:36:42;6.10;99.90
27890;DHT22;15238;49.082;9.102;2023-02-02T00:38:43;6.00;99.90
27890;DHT22;15238;49.082;9.102;2023-02-02T00:40:43;6.00;99.90
27890;DHT22;15238;49.082;9.102;2023-02-02T00:42:44;6.00;99.90
27890;DHT22;15238;49.082;9.102;2023-02-02T00:44:48;6.00;99.90
27890;DHT22;15238;49.082;9.102;2023-02-02T00:47:07;6.00;99.90
27890;DHT22;15238;49.082;9.102;2023-02-02T00:49:08;6.00;99.90
27890;DHT22;15238;49.082;9.102;2023-02-02T00:51:09;6.00;99.90
27890;DHT22;15238;49.082;9.102;2023-02-02T00:53:10;6.00;99.90
27890;DHT22;15238;49.082;9.102;2023-02-02T00:55:11;6.00;99.90
27890;DHT22;15238;49.082;9.102;2023-02-02T00:57:12;6.00;99.90
27890;DHT22;15238;49.082;9.102;2023-02-02T00:59:13;6.00;99.90
27890;DHT22;15238;49.082;9.102;2023-02-02T01:01:18;6.00;99.90
27890;DHT22;15238;49.082;9.102;2023-02-02T01:03:20;6.00;99.90
27890;DHT22;15238;49.082;9.102;2023-02-02T01:05:21;5.90;99.90
27890;DHT22;15238;49.082;9.102;2023-02-02T01:07:22;5.90;99.90
27890;DHT22;15238;49.082;9.102;2023-02-02T01:09:22;5.90;99.90
27890;DHT22;15238;49.082;9.102;2023-02-02T01:11:23;5.90;99.90
27890;DHT22;15238;49.082;9.102;2023-02-02T01:13:25;5.90;99.90
27890;DHT22;15238;49.082;9.102;2023-02-02T01:15:25;5.90;99.90
27890;DHT22;15238;49.082;9.102;2023-02-02T01:17:26;5.90;99.90
27890;DHT22;15238;49.082;9.102;2023-02-02T01:19:26;5.90;99.90
27890;DHT22;15238;49.082;9.102;2023-02-02T01:21:27;5.90;99.90
27890;DHT22;15238;49.082;9.102;2023-02-02T01:23:28;5.90;99.90
27890;DHT22;15238;49.082;9.102;2023-02-02T01:25:28;5.90;99.90
27890;DHT22;15238;49.082;9.102;2023-02-02T01:27:29;5.90;99.90
27890;DHT22;15238;49.082;9.102;2023-02-02T01:29:30;5.90;99.90
27890;DHT22;15238;49.082;9.102;2023-02-02T01:31:31;5.90;99.90
27890;DHT22;15238;49.082;9.102;2023-02-02T01:33:31;5.90;99.90
27890;DHT22;15238;49.082;9.102;2023-02-02T01:35:32;5.90;99.90
27890;DHT22;15238;49.082;9.102;2023-02-02T01:37:32;5.80;99.90
27890;DHT22;15238;49.082;9.102;2023-02-02T01:39:33;5.80;99.90
27890;DHT22;15238;49.082;9.102;2023-02-02T01:41:33;5.80;99.90
27890;DHT22;15238;49.082;9.102;2023-02-02T01:45:43;5.70;99.90
27890;DHT22;15238;49.082;9.102;2023-02-02T01:47:51;5.70;99.90
27890;DHT22;15238;49.082;9.102;2023-02-02T01:49:53;5.70;99.90
27890;DHT22;15238;49.082;9.102;2023-02-02T01:51:57;5.70;99.90
27890;DHT22;15238;49.082;9.102;2023-02-02T01:53:58;5.70;99.90
27890;DHT22;15238;49.082;9.102;2023-02-02T01:56:01;5.70;99.90
27890;DHT22;15238;49.082;9.102;2023-02-02T01:58:10;5.80;99.90
27890;DHT22;15238;49.082;9.102;2023-02-02T02:00:13;5.80;99.90
27890;DHT22;15238;49.082;9.102;2023-02-02T02:02:15;5.80;99.90
27890;DHT22;15238;49.082;9.102;2023-02-02T02:04:16;5.90;99.90
27890;DHT22;15238;49.082;9.102;2023-02-02T02:06:18;5.80;99.90
27890;DHT22;15238;49.082;9.102;2023-02-02T02:08:27;5.80;99.90
27890;DHT22;15238;49.082;9.102;2023-02-02T02:10:29;5.80;99.90
27890;DHT22;15238;49.082;9.102;2023-02-02T02:12:29;5.80;99.90
27890;DHT22;15238;49.082;9.102;2023-02-02T02:14:29;5.80;99.90
27890;DHT22;15238;49.082;9.102;2023-02-02T02:22:18;5.70;99.90
27890;DHT22;15238;49.082;9.102;2023-02-02T02:27:53;5.70;99.90
27890;DHT22;15238;49.082;9.102;2023-02-02T02:36:57;5.80;99.90
27890;DHT22;15238;49.082;9.102;2023-02-02T02:41:17;5.80;99.90
27890;DHT22;15238;49.082;9.102;2023-02-02T02:43:29;5.80;99.90
27890;DHT22;15238;49.082;9.102;2023-02-02T02:45:31;5.80;99.90
27890;DHT22;15238;49.082;9.102;2023-02-02T02:47:33;5.70;99.90
27890;DHT22;15238;49.082;9.102;2023-02-02T02:49:41;5.70;99.90
27890;DHT22;15238;49.082;9.102;2023-02-02T02:51:47;5.70;99.90
27890;DHT22;15238;49.082;9.102;2023-02-02T02:53:48;5.70;99.90
27890;DHT22;15238;49.082;9.102;2023-02-02T02:56:17;5.70;99.90
27890;DHT22;15238;49.082;9.102;2023-02-02T03:00:45;5.80;99.90
27890;DHT22;15238;49.082;9.102;2023-02-02T03:03:12;5.80;99.90
27890;DHT22;15238;49.082;9.102;2023-02-02T03:05:36;5.80;99.90
27890;DHT22;15238;49.082;9.102;2023-02-02T03:07:46;5.90;99.90
27890;DHT22;15238;49.082;9.102;2023-02-02T03:09:48;5.90;99.90
27890;DHT22;15238;49.082;9.102;2023-02-02T03:11:50;5.90;99.90
27890;DHT22;15238;49.082;9.102;2023-02-02T03:13:51;6.00;99.90
27890;DHT22;15238;49.082;9.102;2023-02-02T03:15:52;5.90;99.90
27890;DHT22;15238;49.082;9.102;2023-02-02T03:17:53;5.90;99.90
27890;DHT22;15238;49.082;9.102;2023-02-02T03:19:53;6.00;99.90
27890;DHT22;15238;49.082;9.102;2023-02-02T03:21:54;5.90;99.90
27890;DHT22;15238;49.082;9.102;2023-02-02T03:23:54;5.90;99.90
27890;DHT22;15238;49.082;9.102;2023-02-02T03:25:55;5.90;99.90
27890;DHT22;15238;49.082;9.102;2023-02-02T03:27:57;6.00;99.90
27890;DHT22;15238;49.082;9.102;2023-02-02T03:29:58;6.00;99.90
27890;DHT22;15238;49.082;9.102;2023-02-02T03:31:58;6.00;99.90
27890;DHT22;15238;49.082;9.102;2023-02-02T03:33:59;6.00;99.90
27890;DHT22;15238;49.082;9.102;2023-02-02T03:35:59;6.00;99.90
27890;DHT22;15238;49.082;9.102;2023-02-02T03:38:00;6.00;99.90
27890;DHT22;15238;49.082;9.102;2023-02-02T03:40:01;6.00;99.90
27890;DHT22;15238;49.082;9.102;2023-02-02T03:42:01;6.00;99.90
27890;DHT22;15238;49.082;9.102;2023-02-02T03:44:02;6.00;99.90
27890;DHT22;15238;49.082;9.102;2023-02-02T03:46:03;6.10;99.90
27890;DHT22;15238;49.082;9.102;2023-02-02T03:48:05;6.00;99.90
27890;DHT22;15238;49.082;9.102;2023-02-02T03:50:06;6.10;99.90
27890;DHT22;15238;49.082;9.102;2023-02-02T03:52:07;6.10;99.90
27890;DHT22;15238;49.082;9.102;2023-02-02T03:54:08;6.10;99.90
27890;DHT22;15238;49.082;9.102;2023-02-02T03:56:08;6.00;99.90
27890;DHT22;15238;49.082;9.102;2023-02-02T03:58:09;6.00;99.90
27890;DHT22;15238;49.082;9.102;2023-02-02T04:00:10;6.10;99.90
27890;DHT22;15238;49.082;9.102;2023-02-02T04:02:10;6.10;99.90
27890;DHT22;15238;49.082;9.102;2023-02-02T04:04:11;6.10;99.90
27890;DHT22;15238;49.082;9.102;2023-02-02T04:06:11;6.10;99.90
27890;DHT22;15238;49.082;9.102;2023-02-02T04:08:12;6.10;99.90
27890;DHT22;15238;49.082;9.102;2023-02-02T04:10:12;6.10;99.90
27890;DHT22;15238;49.082;9.102;2023-02-02T04:12:13;6.00;99.90
27890;DHT22;15238;49.082;9.102;2023-02-02T04:14:13;6.10;99.90
27890;DHT22;15238;49.082;9.102;2023-02-02T04:16:14;6.10;99.90
27890;DHT22;15238;49.082;9.102;2023-02-02T04:18:15;6.10;99.90
27890;DHT22;15238;49.082;9.102;2023-02-02T04:20:16;6.10;99.90
27890;DHT22;15238;49.082;9.102;2023-02-02T04:22:16;6.10;99.90
27890;DHT22;15238;49.082;9.102;2023-02-02T04:24:17;6.10;99.90
27890;DHT22;15238;49.082;9.102;2023-02-02T04:26:17;6.10;99.90
27890;DHT22;15238;49.082;9.102;2023-02-02T04:28:18;6.10;99.90
27890;DHT22;15238;49.082;9.102;2023-02-02T04:30:19;6.10;99.90
27890;DHT22;15238;49.082;9.102;2023-02-02T04:32:19;6.10;99.90
27890;DHT22;15238;49.082;9.102;2023-02-02T04:34:20;6.10;99.90
27890;DHT22;15238;49.082;9.102;2023-02-02T04:36:21;6.10;99.90
27890;DHT22;15238;49.082;9.102;2023-02-02T04:38:22;6.10;99.90
27890;DHT22;15238;49.082;9.102;2023-02-02T04:40:22;6.10;99.90
27890;DHT22;15238;49.082;9.102;2023-02-02T04:42:23;6.10;99.90
27890;DHT22;15238;49.082;9.102;2023-02-02T04:44:23;6.10;99.90
27890;DHT22;15238;49.082;9.102;2023-02-02T04:46:24;6.10;99.90
27890;DHT22;15238;49.082;9.102;2023-02-02T04:48:25;6.10;99.90
27890;DHT22;15238;49.082;9.102;2023-02-02T04:50:26;6.10;99.90
27890;DHT22;15238;49.082;9.102;2023-02-02T04:52:28;6.10;99.90
27890;DHT22;15238;49.082;9.102;2023-02-02T04:54:28;6.10;99.90
27890;DHT22;15238;49.082;9.102;2023-02-02T04:56:29;6.10;99.90
27890;DHT22;15238;49.082;9.102;2023-02-02T04:58:29;6.10;99.90
27890;DHT22;15238;49.082;9.102;2023-02-02T05:00:30;6.10;99.90
27890;DHT22;15238;49.082;9.102;2023-02-02T05:02:30;6.10;99.90
27890;DHT22;15238;49.082;9.102;2023-02-02T05:04:34;6.10;99.90
27890;DHT22;15238;49.082;9.102;2023-02-02T05:06:34;6.10;99.90
27890;DHT22;15238;49.082;9.102;2023-02-02T05:08:35;6.10;99.90
27890;DHT22;15238;49.082;9.102;2023-02-02T05:10:39;6.10;99.90
27890;DHT22;15238;49.082;9.102;2023-02-02T05:12:40;6.10;99.90
27890;DHT22;15238;49.082;9.102;2023-02-02T05:14:41;6.10;99.90
27890;DHT22;15238;49.082;9.102;2023-02-02T05:16:41;6.10;99.90
27890;DHT22;15238;49.082;9.102;2023-02-02T05:18:42;6.10;99.90
27890;DHT22;15238;49.082;9.102;2023-02-02T05:20:43;6.10;99.90
27890;DHT22;15238;49.082;9.102;2023-02-02T05:22:43;6.10;99.90
27890;DHT22;15238;49.082;9.102;2023-02-02T05:24:44;6.10;99.90
27890;DHT22;15238;49.082;9.102;2023-02-02T05:26:44;6.00;99.90
27890;DHT22;15238;49.082;9.102;2023-02-02T05:28:45;6.10;99.90
27890;DHT22;15238;49.082;9.102;2023-02-02T05:30:46;6.10;99.90
27890;DHT22;15238;49.082;9.102;2023-02-02T05:32:46;6.10;99.90
27890;DHT22;15238;49.082;9.102;2023-02-02T05:34:47;6.10;99.90
27890;DHT22;15238;49.082;9.102;2023-02-02T05:36:48;6.00;99.90
27890;DHT22;15238;49.082;9.102;2023-02-02T05:38:49;6.00;99.90
27890;DHT22;15238;49.082;9.102;2023-02-02T05:40:49;6.00;99.90
27890;DHT22;15238;49.082;9.102;2023-02-02T05:42:50;6.00;99.90
27890;DHT22;15238;49.082;9.102;2023-02-02T05:44:50;6.00;99.90
27890;DHT22;15238;49.082;9.102;2023-02-02T05:46:51;6.00;99.90
27890;DHT22;15238;49.082;9.102;2023-02-02T05:48:51;6.00;99.90
27890;DHT22;15238;49.082;9.102;2023-02-02T05:51:12;6.00;99.90
27890;DHT22;15238;49.082;9.102;2023-02-02T05:53:15;6.00;99.90
27890;DHT22;15238;49.082;9.102;2023-02-02T05:55:16;6.00;99.90
27890;DHT22;15238;49.082;9.102;2023-02-02T05:57:17;6.00;99.90
27890;DHT22;15238;49.082;9.102;2023-02-02T05:59:18;6.00;99.90
27890;DHT22;15238;49.082;9.102;2023-02-02T06:01:19;5.90;99.90
27890;DHT22;15238;49.082;9.102;2023-02-02T06:03:20;5.90;99.90
27890;DHT22;15238;49.082;9.102;2023-02-02T06:05:21;5.90;99.90
27890;DHT22;15238;49.082;9.102;2023-02-02T06:07:22;5.90;99.90
27890;DHT22;15238;49.082;9.102;2023-02-02T06:09:22;5.90;99.90
27890;DHT22;15238;49.082;9.102;2023-02-02T06:11:24;5.90;99.90
27890;DHT22;15238;49.082;9.102;2023-02-02T06:13:25;5.90;99.90
27890;DHT22;15238;49.082;9.102;2023-02-02T06:15:25;5.90;99.90
27890;DHT22;15238;49.082;9.102;2023-02-02T06:17:26;5.90;99.90
27890;DHT22;15238;49.082;9.102;2023-02-02T06:19:27;6.00;99.90
27890;DHT22;15238;49.082;9.102;2023-02-02T06:21:27;6.00;99.90
27890;DHT22;15238;49.082;9.102;2023-02-02T06:23:31;5.90;99.90
27890;DHT22;15238;49.082;9.102;2023-02-02T06:25:32;5.90;99.90
27890;DHT22;15238;49.082;9.102;2023-02-02T06:27:33;5.90;99.90
27890;DHT22;15238;49.082;9.102;2023-02-02T06:29:34;5.90;99.90
27890;DHT22;15238;49.082;9.102;2023-02-02T06:31:34;5.90;99.90
27890;DHT22;15238;49.082;9.102;2023-02-02T06:33:36;5.90;99.90
27890;DHT22;15238;49.082;9.102;2023-02-02T06:35:36;5.90;99.90
27890;DHT22;15238;49.082;9.102;2023-02-02T06:37:37;6.00;99.90
27890;DHT22;15238;49.082;9.102;2023-02-02T06:39:38;6.00;99.90
27890;DHT22;15238;49.082;9.102;2023-02-02T06:41:39;6.00;99.90
27890;DHT22;15238;49.082;9.102;2023-02-02T06:43:39;5.90;99.90
27890;DHT22;15238;49.082;9.102;2023-02-02T06:45:40;6.00;99.90
27890;DHT22;15238;49.082;9.102;2023-02-02T06:47:40;5.90;99.90
27890;DHT22;15238;49.082;9.102;2023-02-02T06:49:41;5.90;99.90
27890;DHT22;15238;49.082;9.102;2023-02-02T06:51:41;5.90;99.90
27890;DHT22;15238;49.082;9.102;2023-02-02T06:53:42;5.90;99.90
27890;DHT22;15238;49.082;9.102;2023-02-02T06:55:42;5.90;99.90
27890;DHT22;15238;49.082;9.102;2023-02-02T06:57:43;5.90;99.90
27890;DHT22;15238;49.082;9.102;2023-02-02T06:59:44;5.90;99.90
27890;DHT22;15238;49.082;9.102;2023-02-02T07:01:48;5.90;99.90
27890;DHT22;15238;49.082;9.102;2023-02-02T07:03:49;5.90;99.90
27890;DHT22;15238;49.082;9.102;2023-02-02T07:05:50;5.90;99.90
27890;DHT22;15238;49.082;9.102;2023-02-02T07:07:51;5.90;99.90
27890;DHT22;15238;49.082;9.102;2023-02-02T07:09:51;5.90;99.90
27890;DHT22;15238;49.082;9.102;2023-02-02T07:11:52;5.90;99.90
27890;DHT22;15238;49.082;9.102;2023-02-02T07:13:52;5.90;99.90
27890;DHT22;15238;49.082;9.102;2023-02-02T07:15:54;5.90;99.90
27890;DHT22;15238;49.082;9.102;2023-02-02T07:17:56;5.90;99.90
27890;DHT22;15238;49.082;9.102;2023-02-02T07:19:56;5.90;99.90
27890;DHT22;15238;49.082;9.102;2023-02-02T07:21:57;5.90;99.90
27890;DHT22;15238;49.082;9.102;2023-02-02T07:23:57;5.90;99.90
27890;DHT22;15238;49.082;9.102;2023-02-02T07:28:01;5.90;99.90
27890;DHT22;15238;49.082;9.102;2023-02-02T07:30:02;5.90;99.90
27890;DHT22;15238;49.082;9.102;2023-02-02T07:32:03;5.90;99.90
27890;DHT22;15238;49.082;9.102;2023-02-02T07:34:04;5.90;99.90
27890;DHT22;15238;49.082;9.102;2023-02-02T07:36:05;5.90;99.90
27890;DHT22;15238;49.082;9.102;2023-02-02T07:38:05;5.90;99.90
27890;DHT22;15238;49.082;9.102;2023-02-02T07:40:06;5.90;99.90
27890;DHT22;15238;49.082;9.102;2023-02-02T07:42:10;6.00;99.90
27890;DHT22;15238;49.082;9.102;2023-02-02T07:44:12;5.90;99.90
27890;DHT22;15238;49.082;9.102;2023-02-02T07:46:15;6.00;99.90
27890;DHT22;15238;49.082;9.102;2023-02-02T07:48:16;6.00;99.90
27890;DHT22;15238;49.082;9.102;2023-02-02T07:50:17;6.00;99.90
27890;DHT22;15238;49.082;9.102;2023-02-02T07:52:18;6.00;99.90
27890;DHT22;15238;49.082;9.102;2023-02-02T07:54:19;6.00;99.90
27890;DHT22;15238;49.082;9.102;2023-02-02T07:56:22;6.00;99.90
27890;DHT22;15238;49.082;9.102;2023-02-02T07:58:23;6.00;99.90
27890;DHT22;15238;49.082;9.102;2023-02-02T08:00:25;6.00;99.90
27890;DHT22;15238;49.082;9.102;2023-02-02T08:02:25;6.00;99.90
27890;DHT22;15238;49.082;9.102;2023-02-02T08:04:26;6.00;99.90
27890;DHT22;15238;49.082;9.102;2023-02-02T08:06:29;6.00;99.90
27890;DHT22;15238;49.082;9.102;2023-02-02T08:08:31;6.10;99.90
27890;DHT22;15238;49.082;9.102;2023-02-02T08:10:31;6.10;99.90
27890;DHT22;15238;49.082;9.102;2023-02-02T08:12:32;6.10;99.90
27890;DHT22;15238;49.082;9.102;2023-02-02T08:14:32;6.10;99.90
27890;DHT22;15238;49.082;9.102;2023-02-02T08:16:33;6.10;99.90
27890;DHT22;15238;49.082;9.102;2023-02-02T08:18:34;6.10;99.90
27890;DHT22;15238;49.082;9.102;2023-02-02T08:20:35;6.20;99.90
27890;DHT22;15238;49.082;9.102;2023-02-02T08:22:35;6.20;99.90
27890;DHT22;15238;49.082;9.102;2023-02-02T08:24:36;6.20;99.90
27890;DHT22;15238;49.082;9.102;2023-02-02T08:26:42;6.20;99.90
27890;DHT22;15238;49.082;9.102;2023-02-02T08:28:44;6.20;99.90
27890;DHT22;15238;49.082;9.102;2023-02-02T08:30:45;6.30;99.90
27890;DHT22;15238;49.082;9.102;2023-02-02T08:32:46;6.20;99.90
27890;DHT22;15238;49.082;9.102;2023-02-02T08:34:49;6.30;99.90
27890;DHT22;15238;49.082;9.102;2023-02-02T08:36:51;6.30;99.90
27890;DHT22;15238;49.082;9.102;2023-02-02T08:38:51;6.30;99.90
27890;DHT22;15238;49.082;9.102;2023-02-02T08:40:52;6.30;99.90
27890;DHT22;15238;49.082;9.102;2023-02-02T08:42:53;6.30;99.90
27890;DHT22;15238;49.082;9.102;2023-02-02T08:44:54;6.30;99.90
27890;DHT22;15238;49.082;9.102;2023-02-02T08:46:54;6.40;99.90
27890;DHT22;15238;49.082;9.102;2023-02-02T08:48:55;6.40;99.90
27890;DHT22;15238;49.082;9.102;2023-02-02T08:50:58;6.40;99.90
27890;DHT22;15238;49.082;9.102;2023-02-02T08:52:58;6.50;99.90
27890;DHT22;15238;49.082;9.102;2023-02-02T08:54:59;6.50;99.90
27890;DHT22;15238;49.082;9.102;2023-02-02T08:56:59;6.50;99.90
27890;DHT22;15238;49.082;9.102;2023-02-02T08:59:00;6.50;99.90
27890;DHT22;15238;49.082;9.102;2023-02-02T09:01:15;6.50;99.90
27890;DHT22;15238;49.082;9.102;2023-02-02T09:03:16;6.50;99.90
27890;DHT22;15238;49.082;9.102;2023-02-02T09:05:16;6.50;99.90
27890;DHT22;15238;49.082;9.102;2023-02-02T09:07:18;6.50;99.90
27890;DHT22;15238;49.082;9.102;2023-02-02T09:09:18;6.50;99.90
27890;DHT22;15238;49.082;9.102;2023-02-02T09:11:19;6.50;99.90
27890;DHT22;15238;49.082;9.102;2023-02-02T09:13:20;6.50;99.90
27890;DHT22;15238;49.082;9.102;2023-02-02T09:15:20;6.50;99.90
27890;DHT22;15238;49.082;9.102;2023-02-02T09:17:21;6.60;99.90
27890;DHT22;15238;49.082;9.102;2023-02-02T09:19:23;6.60;99.90
27890;DHT22;15238;49.082;9.102;2023-02-02T09:21:24;6.70;99.90
27890;DHT22;15238;49.082;9.102;2023-02-02T09:23:25;6.70;99.90
27890;DHT22;15238;49.082;9.102;2023-02-02T09:25:25;6.70;99.90
27890;DHT22;15238;49.082;9.102;2023-02-02T09:27:27;6.70;99.90
27890;DHT22;15238;49.082;9.102;2023-02-02T09:29:28;6.70;99.90
27890;DHT22;15238;49.082;9.102;2023-02-02T09:31:31;6.70;99.90
27890;DHT22;15238;49.082;9.102;2023-02-02T09:33:32;6.70;99.90
27890;DHT22;15238;49.082;9.102;2023-02-02T09:35:33;6.70;99.90
27890;DHT22;15238;49.082;9.102;2023-02-02T09:37:34;6.70;99.90
27890;DHT22;15238;49.082;9.102;2023-02-02T09:39:34;6.70;99.90
27890;DHT22;15238;49.082;9.102;2023-02-02T09:44:30;6.70;99.90
27890;DHT22;15238;49.082;9.102;2023-02-02T09:46:18;6.80;99.90
27890;DHT22;15238;49.082;9.102;2023-02-02T09:48:42;6.80;99.90
27890;DHT22;15238;49.082;9.102;2023-02-02T09:51:12;6.80;99.90
27890;DHT22;15238;49.082;9.102;2023-02-02T09:53:26;6.80;99.90
27890;DHT22;15238;49.082;9.102;2023-02-02T09:55:33;6.90;99.90
27890;DHT22;15238;49.082;9.102;2023-02-02T09:57:44;6.80;99.90
27890;DHT22;15238;49.082;9.102;2023-02-02T09:59:48;6.90;99.90
27890;DHT22;15238;49.082;9.102;2023-02-02T10:01:54;6.90;99.90
27890;DHT22;15238;49.082;9.102;2023-02-02T10:04:18;6.90;99.90
27890;DHT22;15238;49.082;9.102;2023-02-02T10:10:59;7.00;99.90
27890;DHT22;15238;49.082;9.102;2023-02-02T10:13:34;7.00;99.90
27890;DHT22;15238;49.082;9.102;2023-02-02T10:15:43;7.00;99.90
27890;DHT22;15238;49.082;9.102;2023-02-02T10:17:56;7.00;99.90
27890;DHT22;15238;49.082;9.102;2023-02-02T10:20:05;7.10;99.90
27890;DHT22;15238;49.082;9.102;2023-02-02T10:22:14;7.10;99.90
27890;DHT22;15238;49.082;9.102;2023-02-02T10:24:19;7.10;99.90
27890;DHT22;15238;49.082;9.102;2023-02-02T10:26:38;7.10;99.90
27890;DHT22;15238;49.082;9.102;2023-02-02T10:30:46;7.10;99.90
27890;DHT22;15238;49.082;9.102;2023-02-02T10:33:04;7.10;99.90
27890;DHT22;15238;49.082;9.102;2023-02-02T10:35:27;7.20;99.90
27890;DHT22;15238;49.082;9.102;2023-02-02T10:41:58;7.20;99.90
27890;DHT22;15238;49.082;9.102;2023-02-02T10:44:19;7.20;99.90
27890;DHT22;15238;49.082;9.102;2023-02-02T10:46:29;7.30;99.90
27890;DHT22;15238;49.082;9.102;2023-02-02T10:48:34;7.20;99.90
27890;DHT22;15238;49.082;9.102;2023-02-02T10:50:35;7.10;99.90
27890;DHT22;15238;49.082;9.102;2023-02-02T10:52:35;7.10;99.90
27890;DHT22;15238;49.082;9.102;2023-02-02T10:54:43;7.20;99.90
27890;DHT22;15238;49.082;9.102;2023-02-02T10:56:50;7.10;99.90
27890;DHT22;15238;49.082;9.102;2023-02-02T10:59:03;7.10;99.90
27890;DHT22;15238;49.082;9.102;2023-02-02T11:01:07;7.10;99.90
27890;DHT22;15238;49.082;9.102;2023-02-02T11:03:12;7.10;99.90
27890;DHT22;15238;49.082;9.102;2023-02-02T11:05:24;7.00;99.90
27890;DHT22;15238;49.082;9.102;2023-02-02T11:07:44;7.00;99.90
27890;DHT22;15238;49.082;9.102;2023-02-02T11:09:44;7.00;99.90
27890;DHT22;15238;49.082;9.102;2023-02-02T11:11:46;7.10;99.90
27890;DHT22;15238;49.082;9.102;2023-02-02T11:16:29;7.10;99.90
27890;DHT22;15238;49.082;9.102;2023-02-02T11:18:30;7.00;99.90
27890;DHT22;15238;49.082;9.102;2023-02-02T11:20:33;7.00;99.90
27890;DHT22;15238;49.082;9.102;2023-02-02T11:22:36;7.00;99.90
27890;DHT22;15238;49.082;9.102;2023-02-02T11:24:46;7.00;99.90
27890;DHT22;15238;49.082;9.102;2023-02-02T11:26:57;7.00;99.90
27890;DHT22;15238;49.082;9.102;2023-02-02T11:28:58;6.90;99.90
27890;DHT22;15238;49.082;9.102;2023-02-02T11:30:59;6.90;99.90
27890;DHT22;15238;49.082;9.102;2023-02-02T11:33:20;6.90;99.90
27890;DHT22;15238;49.082;9.102;2023-02-02T11:35:27;6.80;99.90
27890;DHT22;15238;49.082;9.102;2023-02-02T11:37:36;6.80;99.90
27890;DHT22;15238;49.082;9.102;2023-02-02T11:39:39;6.80;99.90
27890;DHT22;15238;49.082;9.102;2023-02-02T11:41:39;6.80;99.90
27890;DHT22;15238;49.082;9.102;2023-02-02T11:43:50;6.80;99.90
27890;DHT22;15238;49.082;9.102;2023-02-02T11:46:03;6.80;99.90
27890;DHT22;15238;49.082;9.102;2023-02-02T11:48:19;6.70;99.90
27890;DHT22;15238;49.082;9.102;2023-02-02T11:50:25;6.80;99.90
27890;DHT22;15238;49.082;9.102;2023-02-02T11:52:28;6.70;99.90
27890;DHT22;15238;49.082;9.102;2023-02-02T11:54:32;6.70;99.90
27890;DHT22;15238;49.082;9.102;2023-02-02T11:56:35;6.70;99.90
27890;DHT22;15238;49.082;9.102;2023-02-02T11:58:46;6.70;99.90
27890;DHT22;15238;49.082;9.102;2023-02-02T12:00:49;6.80;99.90
27890;DHT22;15238;49.082;9.102;2023-02-02T12:02:50;6.70;99.90
27890;DHT22;15238;49.082;9.102;2023-02-02T12:07:24;6.70;99.90
27890;DHT22;15238;49.082;9.102;2023-02-02T12:09:25;6.70;99.90
27890;DHT22;15238;49.082;9.102;2023-02-02T12:20:47;6.70;99.90
27890;DHT22;15238;49.082;9.102;2023-02-02T12:29:31;6.70;99.90
27890;DHT22;15238;49.082;9.102;2023-02-02T12:34:31;6.70;99.90
27890;DHT22;15238;49.082;9.102;2023-02-02T12:36:49;6.70;99.90
27890;DHT22;15238;49.082;9.102;2023-02-02T12:39:03;6.70;99.90
27890;DHT22;15238;49.082;9.102;2023-02-02T12:46:01;6.70;99.90
27890;DHT22;15238;49.082;9.102;2023-02-02T13:02:14;6.70;99.90
27890;DHT22;15238;49.082;9.102;2023-02-02T13:09:16;6.70;99.90
27890;DHT22;15238;49.082;9.102;2023-02-02T13:11:37;6.70;99.90
27890;DHT22;15238;49.082;9.102;2023-02-02T13:13:38;6.80;99.90
27890;DHT22;15238;49.082;9.102;2023-02-02T13:15:51;6.80;99.90
27890;DHT22;15238;49.082;9.102;2023-02-02T13:17:56;6.80;99.90
27890;DHT22;15238;49.082;9.102;2023-02-02T13:20:00;6.90;99.90
27890;DHT22;15238;49.082;9.102;2023-02-02T13:22:05;6.90;99.90
27890;DHT22;15238;49.082;9.102;2023-02-02T13:24:11;6.90;99.90
27890;DHT22;15238;49.082;9.102;2023-02-02T13:26:18;6.90;99.90
27890;DHT22;15238;49.082;9.102;2023-02-02T13:30:56;6.90;99.90
27890;DHT22;15238;49.082;9.102;2023-02-02T13:33:01;6.90;99.90
27890;DHT22;15238;49.082;9.102;2023-02-02T13:35:22;6.90;99.90
27890;DHT22;15238;49.082;9.102;2023-02-02T13:37:52;6.90;99.90
27890;DHT22;15238;49.082;9.102;2023-02-02T13:40:02;7.00;99.90
27890;DHT22;15238;49.082;9.102;2023-02-02T13:42:04;7.00;99.90
27890;DHT22;15238;49.082;9.102;2023-02-02T13:44:37;7.00;99.90
27890;DHT22;15238;49.082;9.102;2023-02-02T13:47:08;7.00;99.90
27890;DHT22;15238;49.082;9.102;2023-02-02T13:49:29;7.00;99.90
27890;DHT22;15238;49.082;9.102;2023-02-02T14:00:53;7.10;99.90
27890;DHT22;15238;49.082;9.102;2023-02-02T14:02:57;7.00;99.90
27890;DHT22;15238;49.082;9.102;2023-02-02T14:05:02;7.00;99.90
27890;DHT22;15238;49.082;9.102;2023-02-02T14:07:04;7.10;99.90
27890;DHT22;15238;49.082;9.102;2023-02-02T14:09:05;7.10;99.90
27890;DHT22;15238;49.082;9.102;2023-02-02T14:11:07;7.10;99.90
27890;DHT22;15238;49.082;9.102;2023-02-02T14:15:42;7.10;99.90
27890;DHT22;15238;49.082;9.102;2023-02-02T14:22:00;7.10;99.90
27890;DHT22;15238;49.082;9.102;2023-02-02T14:26:46;7.10;99.90
27890;DHT22;15238;49.082;9.102;2023-02-02T14:28:48;7.10;99.90
27890;DHT22;15238;49.082;9.102;2023-02-02T14:31:27;7.10;99.90
27890;DHT22;15238;49.082;9.102;2023-02-02T14:33:38;7.10;99.90
27890;DHT22;15238;49.082;9.102;2023-02-02T14:40:51;7.10;99.90
27890;DHT22;15238;49.082;9.102;2023-02-02T14:45:31;7.20;99.90
27890;DHT22;15238;49.082;9.102;2023-02-02T14:49:44;7.20;99.90
27890;DHT22;15238;49.082;9.102;2023-02-02T14:51:55;7.20;99.90
27890;DHT22;15238;49.082;9.102;2023-02-02T14:53:58;7.20;99.90
27890;DHT22;15238;49.082;9.102;2023-02-02T14:58:22;7.20;99.90
27890;DHT22;15238;49.082;9.102;2023-02-02T15:00:32;7.20;99.90
27890;DHT22;15238;49.082;9.102;2023-02-02T15:02:35;7.20;99.90
27890;DHT22;15238;49.082;9.102;2023-02-02T15:04:37;7.20;99.90
27890;DHT22;15238;49.082;9.102;2023-02-02T15:06:39;7.30;99.90
27890;DHT22;15238;49.082;9.102;2023-02-02T15:08:41;7.30;99.90
27890;DHT22;15238;49.082;9.102;2023-02-02T15:13:03;7.30;99.90
27890;DHT22;15238;49.082;9.102;2023-02-02T15:15:15;7.30;99.90